sensor_id;sensor_type;location;lat;lon;timestamp;P1;durP1;ratioP1;P2;durP2;ratioP2
76284;SDS011;65096;50.998;7.098;2023-05-10T00:00:59;9.68;;;4.97;;
76284;SDS011;65096;50.998;7.098;2023-05-10T00:03:25;9.95;;;4.68;;
76284;SDS011;65096;50.998;7.098;2023-05-10T00:05:53;10.52;;;4.97;;
76284;SDS011;65096;50.998;7.098;2023-05-10T00:08:20;9.00;;;4.38;;
76284;SDS011;65096;50.998;7.098;2023-05-10T00:10:47;9.32;;;5.00;;
76284;SDS011;65096;50.998;7.098;2023-05-10T00:13:14;10.07;;;5.30;;
76284;SDS011;65096;50.998;7.098;2023-05-10T00:15:40;10.05;;;4.88;;
76284;SDS011;65096;50.998;7.098;2023-05-10T00:18:07;10.65;;;5.60;;
76284;SDS011;65096;50.998;7.098;2023-05-10T00:20:33;10.35;;;5.53;;
76284;SDS011;65096;50.998;7.098;2023-05-10T00:23:01;9.95;;;5.13;;
76284;SDS011;65096;50.998;7.098;2023-05-10T00:25:28;11.30;;;5.75;;
76284;SDS011;65096;50.998;7.098;2023-05-10T00:27:55;11.95;;;6.10;;
76284;SDS011;65096;50.998;7.098;2023-05-10T00:30:22;11.18;;;5.80;;
76284;SDS011;65096;50.998;7.098;2023-05-10T00:32:49;12.20;;;5.63;;
76284;SDS011;65096;50.998;7.098;2023-05-10T00:35:16;10.93;;;5.97;;
76284;SDS011;65096;50.998;7.098;2023-05-10T00:37:43;10.80;;;5.28;;
76284;SDS011;65096;50.998;7.098;2023-05-10T00:40:11;10.02;;;5.32;;
76284;SDS011;65096;50.998;7.098;2023-05-10T00:42:38;11.23;;;5.68;;
76284;SDS011;65096;50.998;7.098;2023-05-10T00:45:06;12.07;;;5.90;;
76284;SDS011;65096;50.998;7.098;2023-05-10T00:47:33;11.10;;;5.60;;
76284;SDS011;65096;50.998;7.098;2023-05-10T00:50:00;11.45;;;5.63;;
76284;SDS011;65096;50.998;7.098;2023-05-10T00:52:27;10.63;;;5.60;;
76284;SDS011;65096;50.998;7.098;2023-05-10T00:54:55;10.73;;;5.13;;
76284;SDS011;65096;50.998;7.098;2023-05-10T00:57:23;11.48;;;5.85;;
76284;SDS011;65096;50.998;7.098;2023-05-10T00:59:50;10.60;;;5.15;;
76284;SDS011;65096;50.998;7.098;2023-05-10T01:02:17;12.25;;;6.35;;
76284;SDS011;65096;50.998;7.098;2023-05-10T01:04:44;11.10;;;5.88;;
76284;SDS011;65096;50.998;7.098;2023-05-10T01:07:11;11.10;;;5.88;;
76284;SDS011;65096;50.998;7.098;2023-05-10T01:09:37;12.13;;;5.68;;
76284;SDS011;65096;50.998;7.098;2023-05-10T01:12:04;10.95;;;5.82;;
76284;SDS011;65096;50.998;7.098;2023-05-10T01:14:34;12.48;;;5.97;;
76284;SDS011;65096;50.998;7.098;2023-05-10T01:17:02;12.30;;;6.43;;
76284;SDS011;65096;50.998;7.098;2023-05-10T01:19:31;12.18;;;6.40;;
76284;SDS011;65096;50.998;7.098;2023-05-10T01:22:04;11.98;;;6.30;;
76284;SDS011;65096;50.998;7.098;2023-05-10T01:28:16;12.88;;;6.63;;
76284;SDS011;65096;50.998;7.098;2023-05-10T01:31:11;12.10;;;6.63;;
76284;SDS011;65096;50.998;7.098;2023-05-10T01:33:51;13.93;;;7.25;;
76284;SDS011;65096;50.998;7.098;2023-05-10T01:36:23;14.30;;;7.38;;
76284;SDS011;65096;50.998;7.098;2023-05-10T01:38:57;13.38;;;6.93;;
76284;SDS011;65096;50.998;7.098;2023-05-10T01:41:28;13.68;;;7.75;;
76284;SDS011;65096;50.998;7.098;2023-05-10T01:44:10;13.27;;;6.93;;
76284;SDS011;65096;50.998;7.098;2023-05-10T01:49:24;15.38;;;7.13;;
76284;SDS011;65096;50.998;7.098;2023-05-10T01:51:57;16.17;;;8.25;;
76284;SDS011;65096;50.998;7.098;2023-05-10T01:54:30;14.88;;;7.32;;
76284;SDS011;65096;50.998;7.098;2023-05-10T01:57:00;16.92;;;7.63;;
76284;SDS011;65096;50.998;7.098;2023-05-10T01:59:30;15.98;;;7.80;;
76284;SDS011;65096;50.998;7.098;2023-05-10T02:02:04;15.02;;;8.52;;
76284;SDS011;65096;50.998;7.098;2023-05-10T02:04:33;15.32;;;6.65;;
76284;SDS011;65096;50.998;7.098;2023-05-10T02:07:03;13.63;;;7.03;;
76284;SDS011;65096;50.998;7.098;2023-05-10T02:09:32;12.68;;;6.40;;
76284;SDS011;65096;50.998;7.098;2023-05-10T02:12:01;13.30;;;6.25;;
76284;SDS011;65096;50.998;7.098;2023-05-10T02:14:30;11.25;;;6.07;;
76284;SDS011;65096;50.998;7.098;2023-05-10T02:17:00;11.02;;;5.88;;
76284;SDS011;65096;50.998;7.098;2023-05-10T02:19:29;13.13;;;6.38;;
76284;SDS011;65096;50.998;7.098;2023-05-10T02:21:59;9.98;;;5.07;;
76284;SDS011;65096;50.998;7.098;2023-05-10T02:24:27;10.80;;;5.80;;
76284;SDS011;65096;50.998;7.098;2023-05-10T02:26:55;12.95;;;6.53;;
76284;SDS011;65096;50.998;7.098;2023-05-10T02:29:23;11.02;;;5.65;;
76284;SDS011;65096;50.998;7.098;2023-05-10T02:31:51;11.57;;;5.45;;
76284;SDS011;65096;50.998;7.098;2023-05-10T02:34:20;12.93;;;6.00;;
76284;SDS011;65096;50.998;7.098;2023-05-10T02:36:48;11.35;;;5.78;;
76284;SDS011;65096;50.998;7.098;2023-05-10T02:39:18;12.82;;;5.43;;
76284;SDS011;65096;50.998;7.098;2023-05-10T02:41:46;10.60;;;4.82;;
76284;SDS011;65096;50.998;7.098;2023-05-10T02:44:15;13.15;;;5.90;;
76284;SDS011;65096;50.998;7.098;2023-05-10T02:46:45;11.30;;;5.53;;
76284;SDS011;65096;50.998;7.098;2023-05-10T02:49:13;9.85;;;5.03;;
76284;SDS011;65096;50.998;7.098;2023-05-10T02:51:40;8.95;;;4.60;;
76284;SDS011;65096;50.998;7.098;2023-05-10T02:54:11;9.63;;;4.30;;
76284;SDS011;65096;50.998;7.098;2023-05-10T02:56:46;8.10;;;3.83;;
76284;SDS011;65096;50.998;7.098;2023-05-10T02:59:16;9.60;;;4.80;;
76284;SDS011;65096;50.998;7.098;2023-05-10T03:01:43;9.00;;;4.00;;
76284;SDS011;65096;50.998;7.098;2023-05-10T03:04:09;8.23;;;4.15;;
76284;SDS011;65096;50.998;7.098;2023-05-10T03:06:36;11.32;;;4.55;;
76284;SDS011;65096;50.998;7.098;2023-05-10T03:09:03;9.05;;;4.18;;
76284;SDS011;65096;50.998;7.098;2023-05-10T03:11:32;9.27;;;4.30;;
76284;SDS011;65096;50.998;7.098;2023-05-10T03:14:13;9.05;;;3.75;;
76284;SDS011;65096;50.998;7.098;2023-05-10T03:16:50;10.75;;;3.85;;
76284;SDS011;65096;50.998;7.098;2023-05-10T03:19:24;8.77;;;4.03;;
76284;SDS011;65096;50.998;7.098;2023-05-10T03:21:57;10.15;;;3.83;;
76284;SDS011;65096;50.998;7.098;2023-05-10T03:24:28;8.45;;;3.67;;
76284;SDS011;65096;50.998;7.098;2023-05-10T03:26:56;9.27;;;4.10;;
76284;SDS011;65096;50.998;7.098;2023-05-10T03:29:29;9.60;;;4.03;;
76284;SDS011;65096;50.998;7.098;2023-05-10T03:31:57;9.68;;;4.07;;
76284;SDS011;65096;50.998;7.098;2023-05-10T03:34:25;9.13;;;4.10;;
76284;SDS011;65096;50.998;7.098;2023-05-10T03:36:52;10.13;;;4.40;;
76284;SDS011;65096;50.998;7.098;2023-05-10T03:39:19;9.65;;;4.43;;
76284;SDS011;65096;50.998;7.098;2023-05-10T03:41:46;9.43;;;3.63;;
76284;SDS011;65096;50.998;7.098;2023-05-10T03:44:12;9.35;;;4.55;;
76284;SDS011;65096;50.998;7.098;2023-05-10T03:46:40;8.40;;;3.85;;
76284;SDS011;65096;50.998;7.098;2023-05-10T03:49:07;9.82;;;4.40;;
76284;SDS011;65096;50.998;7.098;2023-05-10T03:51:34;10.00;;;4.50;;
76284;SDS011;65096;50.998;7.098;2023-05-10T03:54:00;9.10;;;4.72;;
76284;SDS011;65096;50.998;7.098;2023-05-10T03:56:27;10.43;;;4.47;;
76284;SDS011;65096;50.998;7.098;2023-05-10T03:58:54;12.75;;;5.00;;
76284;SDS011;65096;50.998;7.098;2023-05-10T04:01:20;9.55;;;4.28;;
76284;SDS011;65096;50.998;7.098;2023-05-10T04:03:48;10.20;;;5.18;;
76284;SDS011;65096;50.998;7.098;2023-05-10T04:06:15;11.43;;;5.05;;
76284;SDS011;65096;50.998;7.098;2023-05-10T04:08:41;10.90;;;5.47;;
76284;SDS011;65096;50.998;7.098;2023-05-10T04:11:09;10.50;;;5.30;;
76284;SDS011;65096;50.998;7.098;2023-05-10T04:13:36;12.52;;;5.85;;
76284;SDS011;65096;50.998;7.098;2023-05-10T04:16:03;12.77;;;5.65;;
76284;SDS011;65096;50.998;7.098;2023-05-10T04:18:30;13.27;;;6.05;;
76284;SDS011;65096;50.998;7.098;2023-05-10T04:20:59;10.35;;;5.60;;
76284;SDS011;65096;50.998;7.098;2023-05-10T04:23:26;13.57;;;6.18;;
76284;SDS011;65096;50.998;7.098;2023-05-10T04:25:58;12.50;;;6.13;;
76284;SDS011;65096;50.998;7.098;2023-05-10T04:28:25;13.27;;;6.00;;
76284;SDS011;65096;50.998;7.098;2023-05-10T04:30:52;11.85;;;5.97;;
76284;SDS011;65096;50.998;7.098;2023-05-10T04:33:18;10.63;;;5.80;;
76284;SDS011;65096;50.998;7.098;2023-05-10T04:35:45;14.75;;;6.40;;
76284;SDS011;65096;50.998;7.098;2023-05-10T04:38:13;13.45;;;5.50;;
76284;SDS011;65096;50.998;7.098;2023-05-10T04:40:40;13.73;;;5.93;;
76284;SDS011;65096;50.998;7.098;2023-05-10T04:43:06;12.93;;;6.03;;
76284;SDS011;65096;50.998;7.098;2023-05-10T04:45:33;12.88;;;5.90;;
76284;SDS011;65096;50.998;7.098;2023-05-10T04:48:00;13.63;;;6.03;;
76284;SDS011;65096;50.998;7.098;2023-05-10T04:50:26;13.52;;;6.63;;
76284;SDS011;65096;50.998;7.098;2023-05-10T04:52:53;13.15;;;6.40;;
76284;SDS011;65096;50.998;7.098;2023-05-10T04:55:21;12.82;;;6.10;;
76284;SDS011;65096;50.998;7.098;2023-05-10T04:57:48;13.25;;;6.97;;
76284;SDS011;65096;50.998;7.098;2023-05-10T05:00:15;17.25;;;7.25;;
76284;SDS011;65096;50.998;7.098;2023-05-10T05:02:42;15.95;;;6.88;;
76284;SDS011;65096;50.998;7.098;2023-05-10T05:05:10;15.52;;;7.63;;
76284;SDS011;65096;50.998;7.098;2023-05-10T05:07:36;16.30;;;8.13;;
76284;SDS011;65096;50.998;7.098;2023-05-10T05:10:04;16.52;;;8.48;;
76284;SDS011;65096;50.998;7.098;2023-05-10T05:12:33;14.93;;;8.00;;
76284;SDS011;65096;50.998;7.098;2023-05-10T05:14:59;15.77;;;7.80;;
76284;SDS011;65096;50.998;7.098;2023-05-10T05:17:26;16.10;;;7.88;;
76284;SDS011;65096;50.998;7.098;2023-05-10T05:19:53;16.63;;;8.85;;
76284;SDS011;65096;50.998;7.098;2023-05-10T05:22:20;18.80;;;8.80;;
76284;SDS011;65096;50.998;7.098;2023-05-10T05:24:52;19.98;;;9.77;;
76284;SDS011;65096;50.998;7.098;2023-05-10T05:27:19;17.50;;;9.38;;
76284;SDS011;65096;50.998;7.098;2023-05-10T05:29:48;16.20;;;8.88;;
76284;SDS011;65096;50.998;7.098;2023-05-10T05:32:15;19.73;;;9.00;;
76284;SDS011;65096;50.998;7.098;2023-05-10T05:34:43;17.13;;;8.75;;
76284;SDS011;65096;50.998;7.098;2023-05-10T05:37:12;19.25;;;9.77;;
76284;SDS011;65096;50.998;7.098;2023-05-10T05:39:39;20.30;;;9.82;;
76284;SDS011;65096;50.998;7.098;2023-05-10T05:42:06;19.75;;;10.40;;
76284;SDS011;65096;50.998;7.098;2023-05-10T05:44:32;18.80;;;9.30;;
76284;SDS011;65096;50.998;7.098;2023-05-10T05:47:00;22.70;;;10.73;;
76284;SDS011;65096;50.998;7.098;2023-05-10T05:49:27;18.58;;;9.77;;
76284;SDS011;65096;50.998;7.098;2023-05-10T05:51:54;18.95;;;9.10;;
76284;SDS011;65096;50.998;7.098;2023-05-10T05:54:24;20.38;;;11.38;;
76284;SDS011;65096;50.998;7.098;2023-05-10T05:56:53;19.38;;;9.27;;
76284;SDS011;65096;50.998;7.098;2023-05-10T05:59:20;19.58;;;9.82;;
76284;SDS011;65096;50.998;7.098;2023-05-10T06:01:46;18.95;;;9.38;;
76284;SDS011;65096;50.998;7.098;2023-05-10T06:04:15;23.02;;;9.57;;
76284;SDS011;65096;50.998;7.098;2023-05-10T06:06:42;22.80;;;9.35;;
76284;SDS011;65096;50.998;7.098;2023-05-10T06:09:09;20.23;;;9.70;;
76284;SDS011;65096;50.998;7.098;2023-05-10T06:11:35;19.00;;;8.85;;
76284;SDS011;65096;50.998;7.098;2023-05-10T06:14:02;17.05;;;8.45;;
76284;SDS011;65096;50.998;7.098;2023-05-10T06:16:29;20.58;;;9.90;;
76284;SDS011;65096;50.998;7.098;2023-05-10T06:18:56;19.55;;;8.95;;
76284;SDS011;65096;50.998;7.098;2023-05-10T06:21:24;18.17;;;8.68;;
76284;SDS011;65096;50.998;7.098;2023-05-10T06:23:51;20.58;;;9.15;;
76284;SDS011;65096;50.998;7.098;2023-05-10T06:26:18;20.98;;;9.05;;
76284;SDS011;65096;50.998;7.098;2023-05-10T06:28:45;19.27;;;9.35;;
76284;SDS011;65096;50.998;7.098;2023-05-10T06:31:12;18.15;;;8.88;;
76284;SDS011;65096;50.998;7.098;2023-05-10T06:33:39;17.73;;;8.30;;
76284;SDS011;65096;50.998;7.098;2023-05-10T06:36:06;19.80;;;9.27;;
76284;SDS011;65096;50.998;7.098;2023-05-10T06:38:34;19.42;;;9.70;;
76284;SDS011;65096;50.998;7.098;2023-05-10T06:41:01;20.77;;;9.05;;
76284;SDS011;65096;50.998;7.098;2023-05-10T06:43:27;18.65;;;9.13;;
76284;SDS011;65096;50.998;7.098;2023-05-10T06:45:54;20.40;;;9.57;;
76284;SDS011;65096;50.998;7.098;2023-05-10T06:48:21;20.17;;;8.95;;
76284;SDS011;65096;50.998;7.098;2023-05-10T06:50:48;20.23;;;8.63;;
76284;SDS011;65096;50.998;7.098;2023-05-10T06:53:14;19.00;;;8.85;;
76284;SDS011;65096;50.998;7.098;2023-05-10T06:55:42;20.10;;;8.73;;
76284;SDS011;65096;50.998;7.098;2023-05-10T06:58:09;20.95;;;9.55;;
76284;SDS011;65096;50.998;7.098;2023-05-10T07:00:36;19.83;;;9.57;;
76284;SDS011;65096;50.998;7.098;2023-05-10T07:03:05;18.50;;;9.20;;
76284;SDS011;65096;50.998;7.098;2023-05-10T07:05:32;19.98;;;9.43;;
76284;SDS011;65096;50.998;7.098;2023-05-10T07:07:58;20.58;;;9.15;;
76284;SDS011;65096;50.998;7.098;2023-05-10T07:10:26;19.02;;;9.15;;
76284;SDS011;65096;50.998;7.098;2023-05-10T07:12:54;20.08;;;9.18;;
76284;SDS011;65096;50.998;7.098;2023-05-10T07:15:20;18.23;;;9.55;;
76284;SDS011;65096;50.998;7.098;2023-05-10T07:17:47;23.67;;;9.85;;
76284;SDS011;65096;50.998;7.098;2023-05-10T07:20:14;21.13;;;10.77;;
76284;SDS011;65096;50.998;7.098;2023-05-10T07:22:41;19.35;;;10.63;;
76284;SDS011;65096;50.998;7.098;2023-05-10T07:25:08;18.83;;;9.13;;
76284;SDS011;65096;50.998;7.098;2023-05-10T07:27:34;18.98;;;9.40;;
76284;SDS011;65096;50.998;7.098;2023-05-10T07:30:03;20.98;;;9.65;;
76284;SDS011;65096;50.998;7.098;2023-05-10T07:32:30;21.30;;;9.68;;
76284;SDS011;65096;50.998;7.098;2023-05-10T07:34:57;21.13;;;8.85;;
76284;SDS011;65096;50.998;7.098;2023-05-10T07:37:23;19.63;;;9.85;;
76284;SDS011;65096;50.998;7.098;2023-05-10T07:39:50;19.63;;;9.07;;
76284;SDS011;65096;50.998;7.098;2023-05-10T07:42:17;24.55;;;9.73;;
76284;SDS011;65096;50.998;7.098;2023-05-10T07:44:44;21.15;;;9.38;;
76284;SDS011;65096;50.998;7.098;2023-05-10T07:47:12;18.80;;;8.70;;
76284;SDS011;65096;50.998;7.098;2023-05-10T07:49:39;17.92;;;9.02;;
76284;SDS011;65096;50.998;7.098;2023-05-10T07:52:05;19.13;;;9.65;;
76284;SDS011;65096;50.998;7.098;2023-05-10T07:54:32;20.75;;;9.75;;
76284;SDS011;65096;50.998;7.098;2023-05-10T07:56:59;18.60;;;9.23;;
76284;SDS011;65096;50.998;7.098;2023-05-10T07:59:26;18.33;;;9.30;;
76284;SDS011;65096;50.998;7.098;2023-05-10T08:01:52;20.45;;;9.77;;
76284;SDS011;65096;50.998;7.098;2023-05-10T08:04:20;22.60;;;9.80;;
76284;SDS011;65096;50.998;7.098;2023-05-10T08:06:47;19.25;;;9.43;;
76284;SDS011;65096;50.998;7.098;2023-05-10T08:09:14;20.77;;;9.35;;
76284;SDS011;65096;50.998;7.098;2023-05-10T08:11:42;17.50;;;9.45;;
76284;SDS011;65096;50.998;7.098;2023-05-10T08:14:09;18.08;;;8.43;;
76284;SDS011;65096;50.998;7.098;2023-05-10T08:16:36;20.95;;;9.02;;
76284;SDS011;65096;50.998;7.098;2023-05-10T08:19:02;18.60;;;9.32;;
76284;SDS011;65096;50.998;7.098;2023-05-10T08:21:30;18.70;;;9.13;;
76284;SDS011;65096;50.998;7.098;2023-05-10T08:23:57;18.00;;;8.80;;
76284;SDS011;65096;50.998;7.098;2023-05-10T08:26:24;16.90;;;8.40;;
76284;SDS011;65096;50.998;7.098;2023-05-10T08:28:51;18.60;;;9.55;;
76284;SDS011;65096;50.998;7.098;2023-05-10T08:31:17;18.67;;;9.48;;
76284;SDS011;65096;50.998;7.098;2023-05-10T08:33:44;18.73;;;9.43;;
76284;SDS011;65096;50.998;7.098;2023-05-10T08:36:11;19.10;;;9.07;;
76284;SDS011;65096;50.998;7.098;2023-05-10T08:38:40;20.73;;;9.35;;
76284;SDS011;65096;50.998;7.098;2023-05-10T08:41:07;17.35;;;8.68;;
76284;SDS011;65096;50.998;7.098;2023-05-10T08:43:34;15.70;;;8.50;;
76284;SDS011;65096;50.998;7.098;2023-05-10T08:46:02;16.60;;;7.38;;
76284;SDS011;65096;50.998;7.098;2023-05-10T08:48:31;15.75;;;7.00;;
76284;SDS011;65096;50.998;7.098;2023-05-10T08:51:00;15.07;;;7.45;;
76284;SDS011;65096;50.998;7.098;2023-05-10T08:53:30;15.77;;;8.00;;
76284;SDS011;65096;50.998;7.098;2023-05-10T08:56:00;16.17;;;7.88;;
76284;SDS011;65096;50.998;7.098;2023-05-10T08:58:28;14.48;;;7.03;;
76284;SDS011;65096;50.998;7.098;2023-05-10T09:00:54;13.10;;;6.78;;
76284;SDS011;65096;50.998;7.098;2023-05-10T09:03:23;13.02;;;6.25;;
76284;SDS011;65096;50.998;7.098;2023-05-10T09:05:49;13.63;;;6.80;;
76284;SDS011;65096;50.998;7.098;2023-05-10T09:08:16;13.95;;;7.00;;
76284;SDS011;65096;50.998;7.098;2023-05-10T09:10:43;15.63;;;6.75;;
76284;SDS011;65096;50.998;7.098;2023-05-10T09:13:13;12.82;;;6.85;;
76284;SDS011;65096;50.998;7.098;2023-05-10T09:15:41;15.40;;;7.45;;
76284;SDS011;65096;50.998;7.098;2023-05-10T09:18:10;15.35;;;7.90;;
76284;SDS011;65096;50.998;7.098;2023-05-10T09:20:37;15.32;;;7.18;;
76284;SDS011;65096;50.998;7.098;2023-05-10T09:23:04;15.48;;;8.05;;
76284;SDS011;65096;50.998;7.098;2023-05-10T09:25:31;16.83;;;8.18;;
76284;SDS011;65096;50.998;7.098;2023-05-10T09:27:58;17.55;;;8.23;;
76284;SDS011;65096;50.998;7.098;2023-05-10T09:30:27;17.90;;;8.30;;
76284;SDS011;65096;50.998;7.098;2023-05-10T09:32:55;18.17;;;8.35;;
76284;SDS011;65096;50.998;7.098;2023-05-10T09:35:23;17.95;;;9.13;;
76284;SDS011;65096;50.998;7.098;2023-05-10T09:37:51;17.27;;;8.57;;
76284;SDS011;65096;50.998;7.098;2023-05-10T09:40:19;17.30;;;9.30;;
76284;SDS011;65096;50.998;7.098;2023-05-10T09:42:50;19.25;;;8.60;;
76284;SDS011;65096;50.998;7.098;2023-05-10T09:45:19;17.30;;;8.48;;
76284;SDS011;65096;50.998;7.098;2023-05-10T09:47:47;18.80;;;9.25;;
76284;SDS011;65096;50.998;7.098;2023-05-10T09:50:14;19.75;;;9.63;;
76284;SDS011;65096;50.998;7.098;2023-05-10T09:52:48;19.33;;;8.85;;
76284;SDS011;65096;50.998;7.098;2023-05-10T09:55:16;19.33;;;9.60;;
76284;SDS011;65096;50.998;7.098;2023-05-10T09:57:44;20.50;;;10.05;;
76284;SDS011;65096;50.998;7.098;2023-05-10T10:00:15;22.35;;;10.13;;
76284;SDS011;65096;50.998;7.098;2023-05-10T10:02:44;23.20;;;11.07;;
76284;SDS011;65096;50.998;7.098;2023-05-10T10:05:13;20.02;;;9.90;;
76284;SDS011;65096;50.998;7.098;2023-05-10T10:07:41;22.50;;;10.07;;
76284;SDS011;65096;50.998;7.098;2023-05-10T10:10:08;23.27;;;9.77;;
76284;SDS011;65096;50.998;7.098;2023-05-10T10:12:38;22.08;;;10.70;;
76284;SDS011;65096;50.998;7.098;2023-05-10T10:15:06;26.00;;;11.05;;
76284;SDS011;65096;50.998;7.098;2023-05-10T10:17:34;28.45;;;10.88;;
76284;SDS011;65096;50.998;7.098;2023-05-10T10:20:02;25.38;;;12.07;;
76284;SDS011;65096;50.998;7.098;2023-05-10T10:22:30;24.70;;;11.77;;
76284;SDS011;65096;50.998;7.098;2023-05-10T10:24:57;25.42;;;11.88;;
76284;SDS011;65096;50.998;7.098;2023-05-10T10:27:26;24.77;;;11.43;;
76284;SDS011;65096;50.998;7.098;2023-05-10T10:30:03;25.30;;;11.52;;
76284;SDS011;65096;50.998;7.098;2023-05-10T10:32:42;27.33;;;12.48;;
76284;SDS011;65096;50.998;7.098;2023-05-10T10:35:27;24.23;;;9.93;;
76284;SDS011;65096;50.998;7.098;2023-05-10T10:37:56;21.15;;;10.13;;
76284;SDS011;65096;50.998;7.098;2023-05-10T10:40:26;21.48;;;10.23;;
76284;SDS011;65096;50.998;7.098;2023-05-10T10:42:54;20.65;;;9.32;;
76284;SDS011;65096;50.998;7.098;2023-05-10T10:45:21;19.42;;;9.73;;
76284;SDS011;65096;50.998;7.098;2023-05-10T10:47:50;20.10;;;9.85;;
76284;SDS011;65096;50.998;7.098;2023-05-10T10:50:43;20.15;;;10.30;;
76284;SDS011;65096;50.998;7.098;2023-05-10T10:53:12;17.65;;;10.23;;
76284;SDS011;65096;50.998;7.098;2023-05-10T10:55:45;19.58;;;9.75;;
76284;SDS011;65096;50.998;7.098;2023-05-10T10:58:28;18.98;;;9.68;;
76284;SDS011;65096;50.998;7.098;2023-05-10T11:01:08;20.30;;;9.50;;
76284;SDS011;65096;50.998;7.098;2023-05-10T11:03:36;16.88;;;8.13;;
76284;SDS011;65096;50.998;7.098;2023-05-10T11:06:03;16.58;;;8.57;;
76284;SDS011;65096;50.998;7.098;2023-05-10T11:08:31;17.80;;;9.45;;
76284;SDS011;65096;50.998;7.098;2023-05-10T11:11:03;19.63;;;10.80;;
76284;SDS011;65096;50.998;7.098;2023-05-10T11:13:33;17.88;;;10.63;;
76284;SDS011;65096;50.998;7.098;2023-05-10T11:16:10;19.45;;;9.77;;
76284;SDS011;65096;50.998;7.098;2023-05-10T11:18:51;20.00;;;10.18;;
76284;SDS011;65096;50.998;7.098;2023-05-10T11:21:19;18.27;;;9.35;;
76284;SDS011;65096;50.998;7.098;2023-05-10T11:23:51;18.73;;;9.60;;
76284;SDS011;65096;50.998;7.098;2023-05-10T11:26:21;16.98;;;9.82;;
76284;SDS011;65096;50.998;7.098;2023-05-10T11:28:51;17.50;;;9.30;;
76284;SDS011;65096;50.998;7.098;2023-05-10T11:31:20;21.10;;;10.57;;
76284;SDS011;65096;50.998;7.098;2023-05-10T11:33:48;18.63;;;9.30;;
76284;SDS011;65096;50.998;7.098;2023-05-10T11:36:16;16.60;;;9.15;;
76284;SDS011;65096;50.998;7.098;2023-05-10T11:38:44;15.98;;;7.82;;
76284;SDS011;65096;50.998;7.098;2023-05-10T11:41:12;15.27;;;7.85;;
76284;SDS011;65096;50.998;7.098;2023-05-10T11:43:39;15.57;;;7.97;;
76284;SDS011;65096;50.998;7.098;2023-05-10T11:46:06;14.90;;;7.80;;
76284;SDS011;65096;50.998;7.098;2023-05-10T11:48:35;15.88;;;7.65;;
76284;SDS011;65096;50.998;7.098;2023-05-10T11:51:02;14.88;;;7.53;;
76284;SDS011;65096;50.998;7.098;2023-05-10T11:53:32;15.13;;;7.65;;
76284;SDS011;65096;50.998;7.098;2023-05-10T11:56:02;14.18;;;7.43;;
76284;SDS011;65096;50.998;7.098;2023-05-10T11:58:31;15.60;;;7.32;;
76284;SDS011;65096;50.998;7.098;2023-05-10T12:00:58;13.98;;;7.00;;
76284;SDS011;65096;50.998;7.098;2023-05-10T12:03:26;12.27;;;5.85;;
76284;SDS011;65096;50.998;7.098;2023-05-10T12:05:52;12.93;;;6.30;;
76284;SDS011;65096;50.998;7.098;2023-05-10T12:08:21;13.18;;;6.00;;
76284;SDS011;65096;50.998;7.098;2023-05-10T12:10:49;11.07;;;5.93;;
76284;SDS011;65096;50.998;7.098;2023-05-10T12:13:16;11.43;;;6.22;;
76284;SDS011;65096;50.998;7.098;2023-05-10T12:15:45;11.32;;;6.05;;
76284;SDS011;65096;50.998;7.098;2023-05-10T12:18:12;9.13;;;4.93;;
76284;SDS011;65096;50.998;7.098;2023-05-10T12:20:40;10.90;;;4.72;;
76284;SDS011;65096;50.998;7.098;2023-05-10T12:23:07;9.05;;;4.70;;
76284;SDS011;65096;50.998;7.098;2023-05-10T12:25:36;8.00;;;3.80;;
76284;SDS011;65096;50.998;7.098;2023-05-10T12:28:04;8.02;;;3.50;;
76284;SDS011;65096;50.998;7.098;2023-05-10T12:30:32;8.55;;;3.83;;
76284;SDS011;65096;50.998;7.098;2023-05-10T12:33:01;6.63;;;3.33;;
76284;SDS011;65096;50.998;7.098;2023-05-10T12:35:33;7.20;;;3.40;;
76284;SDS011;65096;50.998;7.098;2023-05-10T12:40:54;8.07;;;3.28;;
76284;SDS011;65096;50.998;7.098;2023-05-10T12:43:21;6.22;;;2.78;;
76284;SDS011;65096;50.998;7.098;2023-05-10T12:45:48;6.28;;;2.67;;
76284;SDS011;65096;50.998;7.098;2023-05-10T12:48:16;5.47;;;2.60;;
76284;SDS011;65096;50.998;7.098;2023-05-10T12:50:43;6.95;;;2.70;;
76284;SDS011;65096;50.998;7.098;2023-05-10T12:53:10;5.47;;;2.83;;
76284;SDS011;65096;50.998;7.098;2023-05-10T12:55:38;5.95;;;2.22;;
76284;SDS011;65096;50.998;7.098;2023-05-10T12:58:05;5.20;;;2.10;;
76284;SDS011;65096;50.998;7.098;2023-05-10T13:00:31;4.03;;;2.08;;
76284;SDS011;65096;50.998;7.098;2023-05-10T13:02:58;7.53;;;2.40;;
76284;SDS011;65096;50.998;7.098;2023-05-10T13:05:26;5.47;;;2.20;;
76284;SDS011;65096;50.998;7.098;2023-05-10T13:07:53;4.78;;;2.30;;
76284;SDS011;65096;50.998;7.098;2023-05-10T13:10:19;5.53;;;2.58;;
76284;SDS011;65096;50.998;7.098;2023-05-10T13:12:47;4.85;;;2.20;;
76284;SDS011;65096;50.998;7.098;2023-05-10T13:15:14;4.13;;;2.10;;
76284;SDS011;65096;50.998;7.098;2023-05-10T13:17:41;5.45;;;2.20;;
76284;SDS011;65096;50.998;7.098;2023-05-10T13:20:07;5.60;;;2.60;;
76284;SDS011;65096;50.998;7.098;2023-05-10T13:22:36;5.50;;;2.15;;
76284;SDS011;65096;50.998;7.098;2023-05-10T13:25:03;3.97;;;2.03;;
76284;SDS011;65096;50.998;7.098;2023-05-10T13:27:30;6.07;;;2.17;;
76284;SDS011;65096;50.998;7.098;2023-05-10T13:29:57;5.03;;;2.10;;
76284;SDS011;65096;50.998;7.098;2023-05-10T13:32:24;4.78;;;1.95;;
76284;SDS011;65096;50.998;7.098;2023-05-10T13:34:51;5.93;;;2.40;;
76284;SDS011;65096;50.998;7.098;2023-05-10T13:37:19;5.63;;;2.33;;
76284;SDS011;65096;50.998;7.098;2023-05-10T13:39:47;5.53;;;2.15;;
76284;SDS011;65096;50.998;7.098;2023-05-10T13:42:14;5.03;;;2.10;;
76284;SDS011;65096;50.998;7.098;2023-05-10T13:44:41;4.75;;;2.20;;
76284;SDS011;65096;50.998;7.098;2023-05-10T13:47:08;4.38;;;1.83;;
76284;SDS011;65096;50.998;7.098;2023-05-10T13:49:35;2.63;;;1.58;;
76284;SDS011;65096;50.998;7.098;2023-05-10T13:52:02;4.30;;;1.80;;
76284;SDS011;65096;50.998;7.098;2023-05-10T13:54:31;3.88;;;1.70;;
76284;SDS011;65096;50.998;7.098;2023-05-10T13:57:00;4.22;;;1.67;;
76284;SDS011;65096;50.998;7.098;2023-05-10T13:59:26;4.05;;;1.83;;
76284;SDS011;65096;50.998;7.098;2023-05-10T14:01:53;4.47;;;2.22;;
76284;SDS011;65096;50.998;7.098;2023-05-10T14:04:20;4.88;;;2.17;;
76284;SDS011;65096;50.998;7.098;2023-05-10T14:06:46;4.38;;;2.10;;
76284;SDS011;65096;50.998;7.098;2023-05-10T14:09:13;4.55;;;2.17;;
76284;SDS011;65096;50.998;7.098;2023-05-10T14:11:40;4.78;;;2.00;;
76284;SDS011;65096;50.998;7.098;2023-05-10T14:14:09;5.97;;;2.60;;
76284;SDS011;65096;50.998;7.098;2023-05-10T14:16:36;3.67;;;1.80;;
76284;SDS011;65096;50.998;7.098;2023-05-10T14:19:03;3.78;;;1.80;;
76284;SDS011;65096;50.998;7.098;2023-05-10T14:21:29;4.00;;;1.90;;
76284;SDS011;65096;50.998;7.098;2023-05-10T14:23:56;4.60;;;2.08;;
76284;SDS011;65096;50.998;7.098;2023-05-10T14:26:23;4.18;;;2.05;;
76284;SDS011;65096;50.998;7.098;2023-05-10T14:28:49;7.32;;;2.20;;
76284;SDS011;65096;50.998;7.098;2023-05-10T14:31:18;6.03;;;2.30;;
76284;SDS011;65096;50.998;7.098;2023-05-10T14:33:45;4.20;;;1.85;;
76284;SDS011;65096;50.998;7.098;2023-05-10T14:36:12;4.68;;;1.83;;
76284;SDS011;65096;50.998;7.098;2023-05-10T14:38:39;5.28;;;2.15;;
76284;SDS011;65096;50.998;7.098;2023-05-10T14:41:06;4.10;;;1.98;;
76284;SDS011;65096;50.998;7.098;2023-05-10T14:43:32;5.43;;;2.03;;
76284;SDS011;65096;50.998;7.098;2023-05-10T14:45:59;5.30;;;2.30;;
76284;SDS011;65096;50.998;7.098;2023-05-10T14:48:27;7.53;;;2.35;;
76284;SDS011;65096;50.998;7.098;2023-05-10T14:50:54;6.97;;;3.40;;